createdAt,value
2023-01-29T00:00:28.489Z,102079.22
2023-01-29T00:02:58.495Z,102068.97
2023-01-29T00:05:28.843Z,102077.34
2023-01-29T00:07:59.541Z,102078.13
2023-01-29T00:10:29.796Z,102081.47
2023-01-29T00:12:59.788Z,102074.41
2023-01-29T00:16:00.157Z,102078.06
2023-01-29T00:18:31.379Z,102074.53
2023-01-29T00:21:04.429Z,102078.78
2023-01-29T00:23:34.488Z,102074.47
2023-01-29T00:26:19.362Z,102079.94
2023-01-29T00:28:51.595Z,102075.13
2023-01-29T00:31:27.022Z,102065.72
2023-01-29T00:33:57.357Z,102061.53
2023-01-29T00:36:28.927Z,102059.25
2023-01-29T00:39:03.576Z,102054.69
2023-01-29T00:41:47.796Z,102053.44
2023-01-29T00:44:31.334Z,102051.50
2023-01-29T00:47:04.132Z,102052.16
2023-01-29T00:49:34.253Z,102046.06
2023-01-29T00:52:16.618Z,102047.06
2023-01-29T00:54:46.629Z,102045.03
2023-01-29T00:57:16.613Z,102044.31
2023-01-29T00:59:46.630Z,102041.84
2023-01-29T01:02:31.934Z,102040.00
2023-01-29T01:05:02.473Z,102047.72
2023-01-29T01:07:33.699Z,102047.66
2023-01-29T01:10:16.266Z,102043.00
2023-01-29T01:12:46.765Z,102045.28
2023-01-29T01:15:16.933Z,102049.50
2023-01-29T01:17:49.743Z,102046.44
2023-01-29T01:20:20.134Z,102041.13
2023-01-29T01:22:50.302Z,102048.72
2023-01-29T01:25:20.444Z,102037.53
2023-01-29T01:27:50.595Z,102041.06
2023-01-29T01:30:20.819Z,102050.75
2023-01-29T01:32:53.909Z,102045.50
2023-01-29T01:35:24.041Z,102037.47
2023-01-29T01:37:54.158Z,102037.53
2023-01-29T01:40:25.625Z,102040.81
2023-01-29T01:42:57.751Z,102034.53
2023-01-29T01:45:30.492Z,102037.50
2023-01-29T01:48:08.850Z,102039.34
2023-01-29T01:50:42.921Z,102036.94
2023-01-29T01:53:17.413Z,102043.94
2023-01-29T01:55:53.479Z,102047.31
2023-01-29T01:58:28.891Z,102041.59
2023-01-29T02:00:59.626Z,102035.59
2023-01-29T02:03:48.722Z,102028.25
2023-01-29T02:06:31.151Z,102031.91
2023-01-29T02:09:18.352Z,102028.25
2023-01-29T02:11:48.472Z,102027.41
2023-01-29T02:14:19.074Z,102016.09
2023-01-29T02:16:49.244Z,102016.09
2023-01-29T02:19:31.617Z,102019.84
2023-01-29T02:22:28.323Z,102018.22
2023-01-29T02:25:09.893Z,102019.00
2023-01-29T02:28:15.746Z,102013.84
2023-01-29T02:30:52.903Z,102006.19
2023-01-29T02:33:32.483Z,102006.63
2023-01-29T02:36:09.993Z,102006.56
2023-01-29T02:38:48.322Z,102004.66
2023-01-29T02:41:23.539Z,102014.53
2023-01-29T02:44:01.888Z,102006.84
2023-01-29T02:46:35.877Z,102003.53
2023-01-29T02:49:16.046Z,102007.91
2023-01-29T02:52:01.721Z,102002.94
2023-01-29T02:54:37.731Z,102008.16
2023-01-29T02:57:17.259Z,101994.91
2023-01-29T02:59:57.016Z,101996.53
2023-01-29T03:02:35.552Z,101992.72
2023-01-29T03:05:12.838Z,101997.88
2023-01-29T03:07:49.319Z,101995.34
2023-01-29T03:10:34.339Z,101997.19
2023-01-29T03:13:11.054Z,101991.72
2023-01-29T03:15:51.274Z,101983.03
2023-01-29T03:18:48.777Z,101983.53
2023-01-29T03:21:36.181Z,101981.50
2023-01-29T03:24:21.432Z,101977.13
2023-01-29T03:27:03.990Z,101981.63
2023-01-29T03:29:53.826Z,101984.25
2023-01-29T03:32:33.083Z,101973.94
2023-01-29T03:35:07.949Z,101969.50
2023-01-29T03:37:44.512Z,101966.16
2023-01-29T03:40:16.424Z,101962.66
2023-01-29T03:43:02.857Z,101959.31
2023-01-29T03:45:43.190Z,101957.50
2023-01-29T03:48:25.440Z,101954.94
2023-01-29T03:51:04.634Z,101946.31
2023-01-29T03:53:44.374Z,101942.38
2023-01-29T03:56:36.620Z,101940.56
2023-01-29T03:59:18.052Z,101932.78
2023-01-29T04:02:32.408Z,101925.44
2023-01-29T04:05:16.833Z,101921.50
2023-01-29T04:08:07.957Z,101916.38
2023-01-29T04:10:42.221Z,101903.75
2023-01-29T04:13:15.173Z,101904.91
2023-01-29T04:15:52.156Z,101897.91
2023-01-29T04:18:28.391Z,101886.47
2023-01-29T04:21:13.409Z,101890.84
2023-01-29T04:23:43.647Z,101883.16
2023-01-29T04:26:51.912Z,101881.63
2023-01-29T04:29:47.770Z,101886.75
2023-01-29T04:32:24.049Z,101882.56
2023-01-29T04:35:04.079Z,101882.44
2023-01-29T04:37:48.508Z,101872.00
2023-01-29T04:40:24.148Z,101867.81
2023-01-29T04:43:05.367Z,101871.13
2023-01-29T04:45:47.907Z,101869.88
2023-01-29T04:48:25.797Z,101873.56
2023-01-29T04:51:01.605Z,101877.22
2023-01-29T04:53:46.048Z,101878.84
2023-01-29T04:56:23.847Z,101875.88
2023-01-29T04:58:58.547Z,101881.94
2023-01-29T05:01:33.205Z,101884.78
2023-01-29T05:04:07.507Z,101887.09
2023-01-29T05:06:40.279Z,101880.81
2023-01-29T05:09:15.422Z,101880.81
2023-01-29T05:11:48.383Z,101887.47
2023-01-29T05:14:22.334Z,101889.16
2023-01-29T05:16:55.148Z,101888.88
2023-01-29T05:19:25.246Z,101880.25
2023-01-29T05:21:55.583Z,101878.84
2023-01-29T05:24:29.908Z,101881.88
2023-01-29T05:27:12.293Z,101888.94
2023-01-29T05:29:44.500Z,101885.56
2023-01-29T05:32:14.477Z,101888.03
2023-01-29T05:34:44.541Z,101886.53
2023-01-29T05:37:14.579Z,101891.84
2023-01-29T05:39:47.079Z,101890.84
2023-01-29T05:42:17.353Z,101877.94
2023-01-29T05:44:47.313Z,101879.63
2023-01-29T05:47:17.377Z,101889.16
2023-01-29T05:49:47.391Z,101886.31
2023-01-29T05:52:17.369Z,101884.19
2023-01-29T05:54:49.951Z,101893.91
2023-01-29T05:57:19.873Z,101895.44
2023-01-29T05:59:49.811Z,101905.81
2023-01-29T06:02:19.765Z,101899.53
2023-01-29T06:04:49.761Z,101911.53
2023-01-29T06:07:19.914Z,101912.44
2023-01-29T06:09:52.432Z,101906.66
2023-01-29T06:12:22.404Z,101914.84
2023-01-29T06:14:52.321Z,101913.09
2023-01-29T06:17:22.218Z,101910.53
2023-01-29T06:19:52.142Z,101916.47
2023-01-29T06:22:22.076Z,101914.00
2023-01-29T06:24:54.650Z,101902.78
2023-01-29T06:27:24.679Z,101907.22
2023-01-29T06:29:54.662Z,101897.75
2023-01-29T06:32:36.132Z,101898.25
2023-01-29T06:35:06.713Z,101896.56
2023-01-29T06:37:36.674Z,101895.94
2023-01-29T06:40:11.713Z,101895.09
2023-01-29T06:42:41.650Z,101884.50
2023-01-29T06:45:14.775Z,101899.94
2023-01-29T06:47:44.801Z,101905.38
2023-01-29T06:50:15.779Z,101898.81
2023-01-29T06:52:45.890Z,101899.81
2023-01-29T06:55:18.577Z,101914.50
2023-01-29T06:57:48.527Z,101924.09
2023-01-29T07:00:19.397Z,101911.88
2023-01-29T07:02:52.066Z,101921.97
2023-01-29T07:05:42.761Z,101913.09
2023-01-29T07:08:12.685Z,101909.28
2023-01-29T07:11:11.715Z,101899.66
2023-01-29T07:13:41.720Z,101900.66
2023-01-29T07:16:14.408Z,101906.66
2023-01-29T07:18:44.418Z,101890.84
2023-01-29T07:21:14.432Z,101884.50
2023-01-29T07:23:44.419Z,101884.78
2023-01-29T07:26:17.038Z,101898.88
2023-01-29T07:28:47.017Z,101916.19
2023-01-29T07:31:17.972Z,101925.66
2023-01-29T07:33:48.217Z,101908.78
2023-01-29T07:36:18.420Z,101906.16
2023-01-29T07:38:52.335Z,101912.16
2023-01-29T07:41:25.154Z,101893.25
2023-01-29T07:43:55.233Z,101895.56
2023-01-29T07:46:25.216Z,101896.28
2023-01-29T07:48:55.299Z,101886.31
2023-01-29T07:51:25.259Z,101873.41
2023-01-29T07:53:55.289Z,101859.13
2023-01-29T07:56:28.108Z,101866.97
2023-01-29T07:58:58.829Z,101877.28
2023-01-29T08:01:28.884Z,101872.44
2023-01-29T08:03:58.895Z,101866.50
2023-01-29T08:06:28.807Z,101874.34
2023-01-29T08:08:59.811Z,101862.03
2023-01-29T08:11:39.058Z,101856.44
2023-01-29T08:14:11.718Z,101860.91
2023-01-29T08:16:41.722Z,101856.38
2023-01-29T08:19:11.744Z,101863.22
2023-01-29T08:21:41.791Z,101871.06
2023-01-29T08:24:11.772Z,101863.63
2023-01-29T08:27:04.584Z,101866.94
2023-01-29T08:29:34.585Z,101866.25
2023-01-29T08:32:04.764Z,101860.59
2023-01-29T08:34:34.959Z,101865.03
2023-01-29T08:37:05.076Z,101847.22
2023-01-29T08:39:35.175Z,101852.28
2023-01-29T08:42:07.825Z,101863.75
2023-01-29T08:44:37.881Z,101854.75
2023-01-29T08:47:07.994Z,101864.91
2023-01-29T08:49:37.937Z,101866.38
2023-01-29T08:52:08.232Z,101858.47
2023-01-29T08:54:38.249Z,101858.59
2023-01-29T08:57:10.923Z,101857.59
2023-01-29T08:59:41.186Z,101843.53
2023-01-29T09:02:13.866Z,101844.22
2023-01-29T09:04:43.824Z,101843.38
2023-01-29T09:07:13.808Z,101851.31
2023-01-29T09:09:43.824Z,101841.59
2023-01-29T09:12:16.473Z,101839.84
2023-01-29T09:14:46.599Z,101838.84
2023-01-29T09:17:16.664Z,101842.28
2023-01-29T09:19:46.657Z,101830.94
2023-01-29T09:22:16.640Z,101830.78
2023-01-29T09:24:53.924Z,101845.63
2023-01-29T09:27:26.700Z,101855.09
2023-01-29T09:29:56.701Z,101855.72
2023-01-29T09:32:50.079Z,101847.94
2023-01-29T09:35:16.880Z,101839.84
2023-01-29T09:37:50.465Z,101841.22
2023-01-29T09:40:26.547Z,101834.31
2023-01-29T09:43:04.705Z,101833.13
2023-01-29T09:45:35.448Z,101830.28
2023-01-29T09:48:06.776Z,101823.44
2023-01-29T09:50:42.567Z,101814.25
2023-01-29T09:53:20.782Z,101806.97
2023-01-29T09:55:54.256Z,101796.16
2023-01-29T09:58:31.883Z,101798.56
2023-01-29T10:01:13.897Z,101805.56
2023-01-29T10:04:15.332Z,101800.03
2023-01-29T10:07:01.496Z,101798.78
2023-01-29T10:10:00.091Z,101796.72
2023-01-29T10:12:45.796Z,101786.00
2023-01-29T10:15:38.152Z,101785.88
2023-01-29T10:18:40.902Z,101766.56
2023-01-29T10:21:26.815Z,101766.97
2023-01-29T10:24:03.766Z,101774.66
2023-01-29T10:26:48.791Z,101773.06
2023-01-29T10:29:38.926Z,101788.13
2023-01-29T10:32:19.496Z,101792.84
2023-01-29T10:34:55.397Z,101784.19
2023-01-29T10:37:29.430Z,101785.28
2023-01-29T10:40:03.475Z,101785.69
2023-01-29T10:42:49.833Z,101779.69
2023-01-29T10:45:31.702Z,101767.91
2023-01-29T10:48:36.438Z,101753.50
2023-01-29T10:51:19.205Z,101757.84
2023-01-29T10:54:00.580Z,101755.06
2023-01-29T10:56:47.762Z,101752.81
2023-01-29T10:59:39.612Z,101740.59
2023-01-29T11:02:19.709Z,101729.97
2023-01-29T11:04:53.634Z,101724.59
2023-01-29T11:07:28.403Z,101718.63
2023-01-29T11:10:05.473Z,101716.69
2023-01-29T11:12:38.320Z,101723.63
2023-01-29T11:15:17.462Z,101715.44
2023-01-29T11:18:06.284Z,101705.97
2023-01-29T11:20:39.158Z,101710.06
2023-01-29T11:23:09.225Z,101701.06
2023-01-29T11:25:56.018Z,101690.69
2023-01-29T11:28:42.193Z,101687.16
2023-01-29T11:31:26.142Z,101686.06
2023-01-29T11:34:04.355Z,101683.88
2023-01-29T11:36:39.746Z,101683.06
2023-01-29T11:39:19.275Z,101680.00
2023-01-29T11:41:56.429Z,101675.78
2023-01-29T11:44:37.411Z,101672.63
2023-01-29T11:47:15.538Z,101666.91
2023-01-29T11:50:05.463Z,101666.50
2023-01-29T11:52:42.216Z,101665.34
2023-01-29T11:55:20.707Z,101662.50
2023-01-29T11:57:54.371Z,101650.88
2023-01-29T12:00:29.864Z,101651.50
2023-01-29T12:03:04.850Z,101650.56
2023-01-29T12:05:58.170Z,101650.28
2023-01-29T12:08:38.135Z,101638.81
2023-01-29T12:11:14.507Z,101626.91
2023-01-29T12:14:03.137Z,101625.09
2023-01-29T12:16:49.701Z,101617.22
2023-01-29T12:19:28.374Z,101610.72
2023-01-29T12:22:04.472Z,101608.91
2023-01-29T12:24:43.764Z,101619.00
2023-01-29T12:27:20.143Z,101617.09
2023-01-29T12:29:55.383Z,101611.31
2023-01-29T12:32:35.893Z,101604.69
2023-01-29T12:35:13.377Z,101601.34
2023-01-29T12:37:54.796Z,101585.66
2023-01-29T12:40:32.532Z,101573.13
2023-01-29T12:43:10.124Z,101579.84
2023-01-29T12:45:41.869Z,101585.13
2023-01-29T12:48:16.862Z,101580.44
2023-01-29T12:50:47.827Z,101573.72
2023-01-29T12:53:28.415Z,101580.94
2023-01-29T12:56:05.373Z,101591.44
2023-01-29T12:58:41.209Z,101587.25
2023-01-29T13:01:19.164Z,101594.31
2023-01-29T13:03:56.127Z,101590.41
2023-01-29T13:06:31.596Z,101594.88
2023-01-29T13:09:04.561Z,101605.44
2023-01-29T13:11:43.937Z,101594.78
2023-01-29T13:14:22.384Z,101581.25
2023-01-29T13:16:57.380Z,101579.47
2023-01-29T13:19:32.463Z,101578.22
2023-01-29T13:22:05.608Z,101574.94
2023-01-29T13:24:44.354Z,101567.06
2023-01-29T13:27:26.670Z,101555.38
2023-01-29T13:29:57.963Z,101555.09
2023-01-29T13:32:30.966Z,101556.69
2023-01-29T13:35:05.449Z,101562.59
2023-01-29T13:37:39.194Z,101553.03
2023-01-29T13:40:11.566Z,101553.75
2023-01-29T13:42:48.578Z,101556.22
2023-01-29T13:45:25.588Z,101556.75
2023-01-29T13:48:26.959Z,101561.25
2023-01-29T13:51:05.925Z,101554.22
2023-01-29T13:53:41.339Z,101544.03
2023-01-29T13:56:41.607Z,101544.88
2023-01-29T13:59:25.779Z,101542.13
2023-01-29T14:02:23.582Z,101535.47
2023-01-29T14:04:53.788Z,101529.03
2023-01-29T14:07:53.183Z,101526.69
2023-01-29T14:10:34.089Z,101530.38
2023-01-29T14:13:37.023Z,101526.47
2023-01-29T14:16:40.340Z,101521.31
2023-01-29T14:19:22.098Z,101519.34
2023-01-29T14:21:53.418Z,101524.31
2023-01-29T14:24:27.732Z,101535.69
2023-01-29T14:26:58.872Z,101519.78
2023-01-29T14:29:34.964Z,101529.06
2023-01-29T14:32:19.994Z,101529.50
2023-01-29T14:34:54.796Z,101510.50
2023-01-29T14:37:31.816Z,101522.81
2023-01-29T14:40:13.493Z,101521.13
2023-01-29T14:42:55.579Z,101518.50
2023-01-29T14:45:35.964Z,101518.50
2023-01-29T14:48:39.255Z,101508.50
2023-01-29T14:51:16.680Z,101505.81
2023-01-29T14:54:05.571Z,101500.22
2023-01-29T14:56:49.396Z,101497.84
2023-01-29T14:59:46.207Z,101501.34
2023-01-29T15:02:25.243Z,101501.88
2023-01-29T15:05:02.793Z,101498.69
2023-01-29T15:07:38.209Z,101501.59
2023-01-29T15:10:24.618Z,101493.84
2023-01-29T15:13:00.106Z,101489.53
2023-01-29T15:15:39.206Z,101487.66
2023-01-29T15:18:12.199Z,101493.09
2023-01-29T15:20:46.535Z,101479.06
2023-01-29T15:23:29.401Z,101483.06
2023-01-29T15:26:02.103Z,101477.28
2023-01-29T15:28:33.707Z,101473.81
2023-01-29T15:31:08.026Z,101463.31
2023-01-29T15:33:39.442Z,101459.88
2023-01-29T15:36:22.596Z,101462.94
2023-01-29T15:39:07.065Z,101456.56
2023-01-29T15:41:37.058Z,101449.06
2023-01-29T15:44:11.886Z,101454.50
2023-01-29T15:46:45.139Z,101456.28
2023-01-29T15:49:23.588Z,101449.81
2023-01-29T15:51:59.795Z,101452.25
2023-01-29T15:54:34.073Z,101448.13
2023-01-29T15:57:05.442Z,101454.31
2023-01-29T15:59:40.750Z,101439.81
2023-01-29T16:02:36.063Z,101442.81
2023-01-29T16:05:30.302Z,101447.59
2023-01-29T16:08:03.838Z,101442.25
2023-01-29T16:10:35.348Z,101442.53
2023-01-29T16:13:31.674Z,101437.47
2023-01-29T16:16:07.307Z,101428.13
2023-01-29T16:18:57.839Z,101432.31
2023-01-29T16:21:37.129Z,101428.88
2023-01-29T16:24:15.986Z,101431.50
2023-01-29T16:26:49.657Z,101429.34
2023-01-29T16:29:26.267Z,101434.00
2023-01-29T16:32:02.642Z,101431.94
2023-01-29T16:34:35.559Z,101423.63
2023-01-29T16:37:10.274Z,101420.53
2023-01-29T16:39:50.597Z,101426.63
2023-01-29T16:42:31.151Z,101415.56
2023-01-29T16:45:04.156Z,101426.44
2023-01-29T16:47:37.684Z,101424.09
2023-01-29T16:50:40.682Z,101427.56
2023-01-29T16:53:25.652Z,101421.75
2023-01-29T16:56:06.278Z,101424.28
2023-01-29T16:58:37.461Z,101427.00
2023-01-29T17:01:12.948Z,101417.28
2023-01-29T17:03:44.535Z,101422.59
2023-01-29T17:06:33.193Z,101421.38
2023-01-29T17:09:04.645Z,101409.69
2023-01-29T17:11:44.298Z,101400.13
2023-01-29T17:14:22.101Z,101401.56
2023-01-29T17:16:54.291Z,101389.00
2023-01-29T17:19:25.434Z,101399.13
2023-01-29T17:21:57.172Z,101402.69
2023-01-29T17:24:27.171Z,101393.13
2023-01-29T17:26:59.887Z,101397.44
2023-01-29T17:29:34.529Z,101378.41
2023-01-29T17:32:04.633Z,101381.44
2023-01-29T17:34:34.616Z,101390.88
2023-01-29T17:37:04.551Z,101375.44
2023-01-29T17:39:35.149Z,101372.72
2023-01-29T17:42:08.256Z,101368.97
2023-01-29T17:44:38.293Z,101361.59
2023-01-29T17:47:11.890Z,101360.66
2023-01-29T17:49:44.190Z,101354.94
2023-01-29T17:52:14.253Z,101349.63
2023-01-29T17:54:44.293Z,101339.91
2023-01-29T17:57:18.220Z,101331.75
2023-01-29T17:59:56.366Z,101328.78
2023-01-29T18:02:28.747Z,101320.16
2023-01-29T18:04:59.808Z,101316.16
2023-01-29T18:07:29.980Z,101317.09
2023-01-29T18:10:00.154Z,101300.63
2023-01-29T18:12:32.988Z,101307.06
2023-01-29T18:15:03.040Z,101301.47
2023-01-29T18:17:36.227Z,101294.94
2023-01-29T18:20:18.854Z,101296.63
2023-01-29T18:22:49.484Z,101283.91
2023-01-29T18:25:24.815Z,101284.25
2023-01-29T18:28:00.698Z,101281.44
2023-01-29T18:30:30.805Z,101290.06
2023-01-29T18:33:02.002Z,101283.41
2023-01-29T18:35:34.795Z,101283.41
2023-01-29T18:38:04.916Z,101290.25
2023-01-29T18:40:35.589Z,101275.84
2023-01-29T18:43:08.338Z,101275.94
2023-01-29T18:45:41.805Z,101272.00
2023-01-29T18:48:11.941Z,101266.59
2023-01-29T18:50:41.934Z,101271.44
2023-01-29T18:53:23.320Z,101266.41
2023-01-29T18:56:00.944Z,101260.50
2023-01-29T18:58:36.758Z,101269.28
2023-01-29T19:01:10.055Z,101268.84
2023-01-29T19:03:40.582Z,101257.53
2023-01-29T19:06:13.279Z,101251.25
2023-01-29T19:08:44.110Z,101246.41
2023-01-29T19:11:34.319Z,101247.91
2023-01-29T19:14:06.920Z,101244.41
2023-01-29T19:16:36.932Z,101248.41
2023-01-29T19:19:07.123Z,101250.31
2023-01-29T19:21:37.660Z,101236.28
2023-01-29T19:24:10.138Z,101229.09
2023-01-29T19:26:40.445Z,101230.56
2023-01-29T19:29:13.348Z,101225.53
2023-01-29T19:31:43.419Z,101221.56
2023-01-29T19:34:13.698Z,101223.66
2023-01-29T19:36:43.706Z,101204.47
2023-01-29T19:39:14.863Z,101207.09
2023-01-29T19:41:44.981Z,101212.34
2023-01-29T19:44:17.850Z,101200.75
2023-01-29T19:46:47.959Z,101190.56
2023-01-29T19:49:18.406Z,101188.72
2023-01-29T19:51:50.604Z,101178.72
2023-01-29T19:54:22.077Z,101172.47
2023-01-29T19:56:52.022Z,101170.41
2023-01-29T19:59:24.990Z,101174.59
2023-01-29T20:01:55.173Z,101176.28
2023-01-29T20:04:26.798Z,101173.13
2023-01-29T20:06:56.739Z,101166.94
2023-01-29T20:09:29.422Z,101151.31
2023-01-29T20:11:59.390Z,101166.19
2023-01-29T20:14:32.020Z,101156.66
2023-01-29T20:17:01.941Z,101150.97
2023-01-29T20:19:31.885Z,101143.38
2023-01-29T20:22:01.896Z,101136.47
2023-01-29T20:24:55.177Z,101122.72
2023-01-29T20:27:25.144Z,101123.13
2023-01-29T20:29:57.667Z,101113.41
2023-01-29T20:32:27.908Z,101114.06
2023-01-29T20:34:57.858Z,101116.13
2023-01-29T20:37:27.897Z,101101.34
2023-01-29T20:39:57.868Z,101105.75
2023-01-29T20:42:27.930Z,101107.72
2023-01-29T20:45:00.806Z,101093.22
2023-01-29T20:47:30.791Z,101087.03
2023-01-29T20:50:04.522Z,101092.56
2023-01-29T20:52:34.509Z,101086.09
2023-01-29T20:55:04.720Z,101071.44
2023-01-29T20:57:39.647Z,101063.41
2023-01-29T21:00:15.168Z,101062.47
2023-01-29T21:02:46.210Z,101067.69
2023-01-29T21:05:16.686Z,101059.75
2023-01-29T21:07:46.611Z,101049.84
2023-01-29T21:10:17.139Z,101041.59
2023-01-29T21:13:02.616Z,101034.69
2023-01-29T21:15:35.267Z,101027.97
2023-01-29T21:18:06.061Z,101026.66
2023-01-29T21:20:36.070Z,101028.44
2023-01-29T21:23:07.325Z,101018.06
2023-01-29T21:25:38.647Z,101005.19
2023-01-29T21:28:08.933Z,101003.81
2023-01-29T21:30:41.707Z,101012.78
2023-01-29T21:33:11.970Z,101003.72
2023-01-29T21:35:42.051Z,101002.38
2023-01-29T21:38:12.116Z,100988.97
2023-01-29T21:40:42.183Z,100990.63
2023-01-29T21:43:12.320Z,100982.69
2023-01-29T21:45:45.538Z,100972.09
2023-01-29T21:48:15.614Z,100971.78
2023-01-29T21:50:45.676Z,100956.50
2023-01-29T21:53:15.682Z,100960.56
2023-01-29T21:55:45.790Z,100958.47
2023-01-29T21:58:16.563Z,100949.47
2023-01-29T22:00:49.801Z,100949.88
2023-01-29T22:03:19.825Z,100942.97
2023-01-29T22:05:54.866Z,100947.34
2023-01-29T22:08:24.920Z,100955.78
2023-01-29T22:10:55.048Z,100951.00
2023-01-29T22:13:25.303Z,100932.41
2023-01-29T22:16:00.371Z,100932.84
2023-01-29T22:18:30.751Z,100930.22
2023-01-29T22:21:02.748Z,100921.47
2023-01-29T22:23:33.473Z,100919.88
2023-01-29T22:26:21.426Z,100917.66
2023-01-29T22:28:55.022Z,100913.38
2023-01-29T22:31:27.887Z,100895.91
2023-01-29T22:33:59.651Z,100892.75
2023-01-29T22:36:32.692Z,100883.03
2023-01-29T22:39:05.549Z,100877.25
2023-01-29T22:41:38.018Z,100879.16
2023-01-29T22:44:08.248Z,100864.88
2023-01-29T22:46:41.348Z,100867.44
2023-01-29T22:49:11.676Z,100864.81
2023-01-29T22:51:42.180Z,100845.66
2023-01-29T22:54:15.588Z,100854.69
2023-01-29T22:56:45.621Z,100851.34
2023-01-29T22:59:15.868Z,100836.56
2023-01-29T23:01:48.669Z,100822.75
2023-01-29T23:04:18.725Z,100820.66
2023-01-29T23:06:48.912Z,100812.81
2023-01-29T23:09:22.102Z,100807.25
2023-01-29T23:11:52.160Z,100797.94
2023-01-29T23:14:22.481Z,100800.56
2023-01-29T23:16:55.045Z,100803.41
2023-01-29T23:19:27.118Z,100792.81
2023-01-29T23:21:57.057Z,100786.03
2023-01-29T23:24:27.047Z,100774.00
2023-01-29T23:27:09.424Z,100767.50
2023-01-29T23:29:39.811Z,100769.81
2023-01-29T23:32:13.555Z,100760.50
2023-01-29T23:34:43.543Z,100766.78
2023-01-29T23:37:13.781Z,100764.69
2023-01-29T23:39:43.942Z,100756.09
2023-01-29T23:42:13.912Z,100746.16
2023-01-29T23:44:44.240Z,100739.88
2023-01-29T23:47:16.752Z,100730.22
2023-01-29T23:49:46.944Z,100739.03
2023-01-29T23:52:17.037Z,100732.34
2023-01-29T23:54:47.121Z,100726.06
2023-01-29T23:57:17.190Z,100727.94
2023-01-29T23:59:47.240Z,100731.81
